createdAt,value
2019-05-28T00:00:10.459Z,13.94
2019-05-28T00:04:18.885Z,14.05
2019-05-28T00:08:25.715Z,14.04
2019-05-28T00:12:32.542Z,13.98
2019-05-28T00:16:40.966Z,14.01
2019-05-28T00:20:47.796Z,13.91
2019-05-28T00:24:54.615Z,13.97
2019-05-28T00:29:01.448Z,13.92
2019-05-28T00:33:08.296Z,13.89
2019-05-28T00:37:15.233Z,13.89
2019-05-28T00:41:22.046Z,13.97
2019-05-28T00:45:28.941Z,14.00
2019-05-28T00:49:36.644Z,14.00
2019-05-28T00:53:43.456Z,13.97
2019-05-28T00:57:50.962Z,13.84
2019-05-28T01:01:57.957Z,13.72
2019-05-28T01:06:16.363Z,13.74
2019-05-28T01:10:23.275Z,13.79
2019-05-28T01:14:30.130Z,13.83
2019-05-28T01:18:36.969Z,13.80
2019-05-28T01:22:43.695Z,13.80
2019-05-28T01:26:50.603Z,13.78
2019-05-28T01:31:00.604Z,13.77
2019-05-28T01:35:06.189Z,13.83
2019-05-28T01:39:13.280Z,13.82
2019-05-28T01:43:20.176Z,13.89
2019-05-28T01:47:27.461Z,13.93
2019-05-28T01:51:35.246Z,13.92
2019-05-28T01:55:42.051Z,14.00
2019-05-28T01:59:48.882Z,13.97
2019-05-28T02:03:55.655Z,13.97
2019-05-28T02:08:02.837Z,13.89
2019-05-28T02:12:10.718Z,13.81
2019-05-28T02:16:17.394Z,13.90
2019-05-28T02:20:24.183Z,13.89
2019-05-28T02:24:31.201Z,13.87
2019-05-28T02:28:38.023Z,13.83
2019-05-28T02:32:44.977Z,13.86
2019-05-28T02:36:51.828Z,13.89
2019-05-28T02:40:58.659Z,13.86
2019-05-28T02:45:06.322Z,13.80
2019-05-28T02:49:13.227Z,13.85
2019-05-28T02:53:19.994Z,13.87
2019-05-28T02:57:29.596Z,13.68
2019-05-28T03:01:44.019Z,13.50
2019-05-28T03:05:52.238Z,13.64
2019-05-28T03:10:02.877Z,13.51
2019-05-28T03:14:09.709Z,13.22
2019-05-28T03:18:19.634Z,13.13
2019-05-28T03:22:27.981Z,13.02
2019-05-28T03:26:34.940Z,13.04
2019-05-28T03:30:42.250Z,12.89
2019-05-28T03:34:49.257Z,13.00
2019-05-28T03:38:58.910Z,12.99
2019-05-28T03:43:05.830Z,13.03
2019-05-28T03:47:12.565Z,13.01
2019-05-28T03:51:19.355Z,13.00
2019-05-28T03:55:26.233Z,13.04
2019-05-28T03:59:32.992Z,13.01
2019-05-28T04:03:39.930Z,13.02
2019-05-28T04:07:46.802Z,12.83
2019-05-28T04:11:53.636Z,12.94
2019-05-28T04:16:00.454Z,13.02
2019-05-28T04:20:07.699Z,12.92
2019-05-28T04:24:14.730Z,12.82
2019-05-28T04:28:21.501Z,12.74
2019-05-28T04:32:40.110Z,12.68
2019-05-28T04:36:37.095Z,12.77
2019-05-28T04:40:43.961Z,12.81
2019-05-28T04:44:51.651Z,12.97
2019-05-28T04:48:58.457Z,13.05
2019-05-28T04:53:06.468Z,13.12
2019-05-28T04:57:13.238Z,13.18
2019-05-28T05:01:20.124Z,13.26
2019-05-28T05:05:26.936Z,13.30
2019-05-28T05:09:33.708Z,13.36
2019-05-28T05:13:40.574Z,13.43
2019-05-28T05:17:47.322Z,13.49
2019-05-28T05:21:54.101Z,13.68
2019-05-28T05:26:00.852Z,13.69
2019-05-28T05:30:09.907Z,13.74
2019-05-28T05:34:16.811Z,13.98
2019-05-28T05:38:24.640Z,13.99
2019-05-28T05:42:31.636Z,14.04
2019-05-28T05:46:38.656Z,14.17
2019-05-28T05:50:48.235Z,14.34
2019-05-28T05:54:57.103Z,14.32
2019-05-28T05:59:14.114Z,14.41
2019-05-28T06:03:38.980Z,14.42
2019-05-28T06:07:31.841Z,14.52
2019-05-28T06:11:38.741Z,14.46
2019-05-28T06:15:45.477Z,14.47
2019-05-28T06:19:52.326Z,14.36
2019-05-28T06:23:59.161Z,14.34
2019-05-28T06:28:06.068Z,14.30
2019-05-28T06:32:12.870Z,14.27
2019-05-28T06:36:19.760Z,14.19
2019-05-28T06:40:26.747Z,14.12
2019-05-28T06:44:33.522Z,14.09
2019-05-28T06:48:41.404Z,13.82
2019-05-28T06:52:48.331Z,13.76
2019-05-28T06:56:55.218Z,13.86
2019-05-28T07:01:02.747Z,13.75
2019-05-28T07:05:10.524Z,13.71
2019-05-28T07:09:17.231Z,13.55
2019-05-28T07:13:23.980Z,13.57
2019-05-28T07:17:30.857Z,13.54
2019-05-28T07:21:37.575Z,13.69
2019-05-28T07:25:45.272Z,13.69
2019-05-28T07:29:52.049Z,13.75
2019-05-28T07:33:58.845Z,13.80
2019-05-28T07:38:05.553Z,13.89
2019-05-28T07:42:12.297Z,14.00
2019-05-28T07:46:19.138Z,13.99
2019-05-28T07:50:25.841Z,14.05
2019-05-28T07:54:33.686Z,14.12
2019-05-28T07:58:40.455Z,14.20
2019-05-28T08:02:47.333Z,14.21
2019-05-28T08:06:55.420Z,14.30
2019-05-28T08:11:02.301Z,14.26
2019-05-28T08:15:09.403Z,14.26
2019-05-28T08:19:16.141Z,14.30
2019-05-28T08:23:22.966Z,14.36
2019-05-28T08:27:29.957Z,13.88
2019-05-28T08:31:36.841Z,13.81
2019-05-28T08:35:43.700Z,14.07
2019-05-28T08:39:50.433Z,14.27
2019-05-28T08:43:57.179Z,14.34
2019-05-28T08:48:03.901Z,14.35
2019-05-28T08:52:11.522Z,14.70
2019-05-28T08:56:18.250Z,14.98
2019-05-28T09:00:39.304Z,14.94
2019-05-28T09:04:46.067Z,15.15
2019-05-28T09:08:52.919Z,15.18
2019-05-28T09:13:00.544Z,15.39
2019-05-28T09:17:08.338Z,15.49
2019-05-28T09:21:15.724Z,15.65
2019-05-28T09:25:22.563Z,15.80
2019-05-28T09:29:29.325Z,15.99
2019-05-28T09:33:36.020Z,16.14
2019-05-28T09:37:42.737Z,16.26
2019-05-28T09:41:49.505Z,16.22
2019-05-28T09:45:56.297Z,16.42
2019-05-28T09:50:03.651Z,16.60
2019-05-28T09:54:10.555Z,16.67
2019-05-28T09:58:17.335Z,17.03
2019-05-28T10:02:24.352Z,17.06
2019-05-28T10:06:37.197Z,17.05
2019-05-28T10:10:39.607Z,17.26
2019-05-28T10:14:46.437Z,17.13
2019-05-28T10:18:54.110Z,17.46
2019-05-28T10:23:00.943Z,17.19
2019-05-28T10:27:07.764Z,17.68
2019-05-28T10:31:14.481Z,17.98
2019-05-28T10:35:22.094Z,17.75
2019-05-28T10:39:28.868Z,18.34
2019-05-28T10:43:35.692Z,18.09
2019-05-28T10:47:42.621Z,18.55
2019-05-28T10:51:49.329Z,19.03
2019-05-28T10:55:56.133Z,18.83
2019-05-28T11:00:03.980Z,19.08
2019-05-28T11:04:12.029Z,18.79
2019-05-28T11:08:18.799Z,18.60
2019-05-28T11:12:25.599Z,18.38
2019-05-28T11:16:32.360Z,18.99
2019-05-28T11:20:39.225Z,19.13
2019-05-28T11:24:45.886Z,20.35
2019-05-28T11:28:52.635Z,18.97
2019-05-28T11:32:59.386Z,19.02
2019-05-28T11:37:09.436Z,19.53
2019-05-28T11:41:14.501Z,20.26
2019-05-28T11:45:21.627Z,19.47
2019-05-28T11:49:28.418Z,19.54
2019-05-28T11:53:37.132Z,19.72
2019-05-28T11:57:44.112Z,20.49
2019-05-28T12:01:50.873Z,21.45
2019-05-28T12:05:57.559Z,20.23
2019-05-28T12:10:07.386Z,19.94
2019-05-28T12:14:14.266Z,19.63
2019-05-28T12:18:21.058Z,19.71
2019-05-28T12:22:28.925Z,20.22
2019-05-28T12:26:35.772Z,19.93
2019-05-28T12:30:42.526Z,20.09
2019-05-28T12:34:49.244Z,19.51
2019-05-28T12:38:55.997Z,19.53
2019-05-28T12:43:02.644Z,19.12
2019-05-28T12:47:14.191Z,19.26
2019-05-28T12:51:18.064Z,18.94
2019-05-28T12:55:25.109Z,19.27
2019-05-28T12:59:31.912Z,19.42
2019-05-28T13:03:38.702Z,20.72
2019-05-28T13:08:06.432Z,21.95
2019-05-28T13:11:55.855Z,21.84
2019-05-28T13:16:02.508Z,22.28
2019-05-28T13:20:11.051Z,21.60
2019-05-28T13:24:20.914Z,21.40
2019-05-28T13:28:27.778Z,21.07
2019-05-28T13:32:34.511Z,20.65
2019-05-28T13:36:42.433Z,20.26
2019-05-28T13:40:50.211Z,21.54
2019-05-28T13:44:57.029Z,22.66
2019-05-28T13:49:04.639Z,21.85
2019-05-28T13:53:11.440Z,21.19
2019-05-28T13:57:18.294Z,20.95
2019-05-28T14:01:25.844Z,20.71
2019-05-28T14:05:34.307Z,21.81
2019-05-28T14:09:41.026Z,22.35
2019-05-28T14:13:47.897Z,21.42
2019-05-28T14:17:54.652Z,21.28
2019-05-28T14:22:04.374Z,20.50
2019-05-28T14:26:10.473Z,19.38
2019-05-28T14:30:19.253Z,18.40
2019-05-28T14:34:26.184Z,18.61
2019-05-28T14:38:32.994Z,17.83
2019-05-28T14:42:39.954Z,17.36
2019-05-28T14:46:46.785Z,18.47
2019-05-28T14:50:53.609Z,18.47
2019-05-28T14:55:00.345Z,18.80
2019-05-28T14:59:41.617Z,18.74
2019-05-28T15:03:48.424Z,18.97
2019-05-28T15:07:55.346Z,19.36
2019-05-28T15:12:03.785Z,19.33
2019-05-28T15:16:12.647Z,18.48
2019-05-28T15:20:20.684Z,18.03
2019-05-28T15:24:30.495Z,18.46
2019-05-28T15:28:40.215Z,18.04
2019-05-28T15:35:13.657Z,18.40
2019-05-28T15:37:15.373Z,18.27
2019-05-28T15:42:01.694Z,18.21
2019-05-28T15:46:09.835Z,18.27
2019-05-28T15:50:18.382Z,18.64
2019-05-28T15:54:25.464Z,18.69
2019-05-28T15:58:32.202Z,18.56
2019-05-28T16:02:39.224Z,18.67
2019-05-28T16:06:47.795Z,18.60
2019-05-28T16:10:54.671Z,18.84
2019-05-28T16:15:01.487Z,18.53
2019-05-28T16:19:08.307Z,18.42
2019-05-28T16:23:15.115Z,18.00
2019-05-28T16:27:21.859Z,18.00
2019-05-28T16:31:28.710Z,18.02
2019-05-28T16:35:35.398Z,18.14
2019-05-28T16:39:47.432Z,18.04
2019-05-28T16:43:52.978Z,18.24
2019-05-28T16:47:59.831Z,18.04
2019-05-28T16:52:06.590Z,17.78
2019-05-28T16:56:13.332Z,17.67
2019-05-28T17:00:20.573Z,17.57
2019-05-28T17:04:27.393Z,17.77
2019-05-28T17:08:34.300Z,17.54
2019-05-28T17:12:41.116Z,17.55
2019-05-28T17:16:47.821Z,17.47
2019-05-28T17:20:54.799Z,17.51
2019-05-28T17:25:01.572Z,17.44
2019-05-28T17:29:09.516Z,17.38
2019-05-28T17:33:16.495Z,17.30
2019-05-28T17:37:23.704Z,17.31
2019-05-28T17:41:30.579Z,17.15
2019-05-28T17:45:37.499Z,17.15
2019-05-28T17:49:44.326Z,17.13
2019-05-28T17:53:51.169Z,17.00
2019-05-28T17:57:58.025Z,16.95
2019-05-28T18:02:04.842Z,16.96
2019-05-28T18:06:11.633Z,16.96
2019-05-28T18:10:18.615Z,16.66
2019-05-28T18:14:25.537Z,16.70
2019-05-28T18:18:32.402Z,16.62
2019-05-28T18:22:39.161Z,16.68
2019-05-28T18:26:46.108Z,16.54
2019-05-28T18:30:52.883Z,16.63
2019-05-28T18:34:59.867Z,16.56
2019-05-28T18:39:08.334Z,16.39
2019-05-28T18:43:15.172Z,16.45
2019-05-28T18:47:22.006Z,16.39
2019-05-28T18:51:28.712Z,16.22
2019-05-28T18:55:35.482Z,16.10
2019-05-28T18:59:42.407Z,16.14
2019-05-28T19:03:53.973Z,16.12
2019-05-28T19:08:00.637Z,16.05
2019-05-28T19:12:07.394Z,16.03
2019-05-28T19:16:14.344Z,15.98
2019-05-28T19:20:21.250Z,15.95
2019-05-28T19:24:27.945Z,15.97
2019-05-28T19:28:34.735Z,15.77
2019-05-28T19:32:41.536Z,15.70
2019-05-28T19:36:48.903Z,15.77
2019-05-28T19:40:55.638Z,15.70
2019-05-28T19:45:02.544Z,15.73
2019-05-28T19:49:10.487Z,15.67
2019-05-28T19:53:17.277Z,15.63
2019-05-28T19:57:24.192Z,15.51
2019-05-28T20:01:32.050Z,15.47
2019-05-28T20:05:38.989Z,15.40
2019-05-28T20:09:46.102Z,15.37
2019-05-28T20:13:53.393Z,15.35
2019-05-28T20:18:00.117Z,15.17
2019-05-28T20:22:06.997Z,15.11
2019-05-28T20:26:16.215Z,15.24
2019-05-28T20:30:25.495Z,15.12
2019-05-28T20:34:32.473Z,15.08
2019-05-28T20:38:39.157Z,15.14
2019-05-28T20:42:45.950Z,15.17
2019-05-28T20:46:52.922Z,15.02
2019-05-28T20:51:12.914Z,14.93
2019-05-28T20:55:08.711Z,14.89
2019-05-28T20:59:15.611Z,14.89
2019-05-28T21:03:22.375Z,14.59
2019-05-28T21:07:29.107Z,14.51
2019-05-28T21:11:40.390Z,14.39
2019-05-28T21:15:47.129Z,14.30
2019-05-28T21:19:53.970Z,14.15
2019-05-28T21:24:00.700Z,14.12
2019-05-28T21:28:07.537Z,14.02
2019-05-28T21:32:14.280Z,13.87
2019-05-28T21:36:21.102Z,13.78
2019-05-28T21:40:27.764Z,13.68
2019-05-28T21:44:34.497Z,13.60
2019-05-28T21:48:41.184Z,13.46
2019-05-28T21:52:47.941Z,13.37
2019-05-28T21:56:55.233Z,13.27
2019-05-28T22:01:07.102Z,13.41
2019-05-28T22:05:15.066Z,13.36
2019-05-28T22:09:21.798Z,13.35
2019-05-28T22:13:28.573Z,13.34
2019-05-28T22:17:35.438Z,13.29
2019-05-28T22:21:42.143Z,13.15
2019-05-28T22:25:49.903Z,13.12
2019-05-28T22:29:58.567Z,13.15
2019-05-28T22:34:05.331Z,13.18
2019-05-28T22:38:12.017Z,13.09
2019-05-28T22:42:19.016Z,13.06
2019-05-28T22:46:25.747Z,13.05
2019-05-28T22:50:32.427Z,13.12
2019-05-28T22:54:39.221Z,13.04
2019-05-28T22:58:45.947Z,13.07
2019-05-28T23:02:52.726Z,13.02
2019-05-28T23:06:59.524Z,12.92
2019-05-28T23:11:06.967Z,13.02
2019-05-28T23:15:15.461Z,13.00
2019-05-28T23:19:22.242Z,12.97
2019-05-28T23:23:29.695Z,12.95
2019-05-28T23:27:36.417Z,12.83
2019-05-28T23:31:43.178Z,12.80
2019-05-28T23:35:49.845Z,12.75
2019-05-28T23:39:56.568Z,12.73
2019-05-28T23:44:03.851Z,12.69
2019-05-28T23:48:14.171Z,12.64
2019-05-28T23:52:19.196Z,12.68
2019-05-28T23:56:25.897Z,12.58
